CheckWX is a tool to help pilots better visualize weather data.  It is not intended as a substitute for an official pre-flight weather briefing.

01:11:31 UTC

LICT TAF
Vincenzo Florio Trapani-Birgi Airport
Trapani, Italy
TAF LICT 192300Z 2000/2009 VRB05KT 9999 FEW035

Apr-20@
00:00 UTC

Apr-20 @ 00:00 UTC

Apr-20@
09:00 UTC

Apr-20 @ 09:00 UTC

TAF LICT 192300Z 2000/2009 VRB05KT 9999 FEW035
Wind
  • Variable at 5 KTS
Cloud Levels
  • Few at 3,500' AGL